sensor_id;sensor_type;location;lat;lon;timestamp;P1;durP1;ratioP1;P2;durP2;ratioP2
54641;SDS011;40536;53.194;5.728;2023-05-10T00:01:16;169.80;;;159.70;;
54641;SDS011;40536;53.194;5.728;2023-05-10T00:03:42;93.20;;;88.57;;
54641;SDS011;40536;53.194;5.728;2023-05-10T00:06:08;87.90;;;83.57;;
54641;SDS011;40536;53.194;5.728;2023-05-10T00:08:34;90.32;;;85.90;;
54641;SDS011;40536;53.194;5.728;2023-05-10T00:11:00;88.32;;;83.85;;
54641;SDS011;40536;53.194;5.728;2023-05-10T00:13:26;90.28;;;85.88;;
54641;SDS011;40536;53.194;5.728;2023-05-10T00:15:52;80.10;;;76.18;;
54641;SDS011;40536;53.194;5.728;2023-05-10T00:18:18;86.32;;;82.35;;
54641;SDS011;40536;53.194;5.728;2023-05-10T00:20:44;78.07;;;74.50;;
54641;SDS011;40536;53.194;5.728;2023-05-10T00:23:13;84.80;;;80.97;;
54641;SDS011;40536;53.194;5.728;2023-05-10T00:25:39;80.35;;;76.63;;
54641;SDS011;40536;53.194;5.728;2023-05-10T00:28:05;84.57;;;80.72;;
54641;SDS011;40536;53.194;5.728;2023-05-10T00:30:32;82.28;;;78.45;;
54641;SDS011;40536;53.194;5.728;2023-05-10T00:32:58;67.88;;;64.50;;
54641;SDS011;40536;53.194;5.728;2023-05-10T00:35:24;70.38;;;67.05;;
54641;SDS011;40536;53.194;5.728;2023-05-10T00:37:51;60.78;;;57.47;;
54641;SDS011;40536;53.194;5.728;2023-05-10T00:40:17;73.88;;;69.68;;
54641;SDS011;40536;53.194;5.728;2023-05-10T00:42:43;70.72;;;65.60;;
54641;SDS011;40536;53.194;5.728;2023-05-10T00:45:09;68.35;;;63.65;;
54641;SDS011;40536;53.194;5.728;2023-05-10T00:47:36;65.88;;;61.20;;
54641;SDS011;40536;53.194;5.728;2023-05-10T00:50:02;70.72;;;65.50;;
54641;SDS011;40536;53.194;5.728;2023-05-10T00:52:28;73.03;;;67.22;;
54641;SDS011;40536;53.194;5.728;2023-05-10T00:54:55;72.30;;;66.78;;
54641;SDS011;40536;53.194;5.728;2023-05-10T00:57:22;75.65;;;69.70;;
54641;SDS011;40536;53.194;5.728;2023-05-10T00:59:48;95.32;;;88.55;;
54641;SDS011;40536;53.194;5.728;2023-05-10T01:02:14;71.88;;;66.72;;
54641;SDS011;40536;53.194;5.728;2023-05-10T01:04:40;71.70;;;66.63;;
54641;SDS011;40536;53.194;5.728;2023-05-10T01:07:06;71.60;;;66.85;;
54641;SDS011;40536;53.194;5.728;2023-05-10T01:09:33;71.32;;;65.95;;
54641;SDS011;40536;53.194;5.728;2023-05-10T01:11:59;88.30;;;81.10;;
54641;SDS011;40536;53.194;5.728;2023-05-10T01:14:26;81.18;;;74.32;;
54641;SDS011;40536;53.194;5.728;2023-05-10T01:16:53;84.75;;;77.57;;
54641;SDS011;40536;53.194;5.728;2023-05-10T01:19:22;90.80;;;83.22;;
54641;SDS011;40536;53.194;5.728;2023-05-10T01:27:17;96.22;;;88.93;;
54641;SDS011;40536;53.194;5.728;2023-05-10T01:32:25;106.18;;;97.35;;
54641;SDS011;40536;53.194;5.728;2023-05-10T01:37:22;110.32;;;102.18;;
54641;SDS011;40536;53.194;5.728;2023-05-10T01:40:05;111.40;;;104.03;;
54641;SDS011;40536;53.194;5.728;2023-05-10T01:42:46;110.70;;;103.00;;
54641;SDS011;40536;53.194;5.728;2023-05-10T01:45:30;117.47;;;109.78;;
54641;SDS011;40536;53.194;5.728;2023-05-10T01:47:58;111.35;;;104.13;;
54641;SDS011;40536;53.194;5.728;2023-05-10T01:50:29;119.20;;;111.38;;
54641;SDS011;40536;53.194;5.728;2023-05-10T01:52:56;112.15;;;104.90;;
54641;SDS011;40536;53.194;5.728;2023-05-10T01:55:24;113.80;;;106.22;;
54641;SDS011;40536;53.194;5.728;2023-05-10T01:57:51;116.18;;;107.78;;
54641;SDS011;40536;53.194;5.728;2023-05-10T02:00:18;113.22;;;104.75;;
54641;SDS011;40536;53.194;5.728;2023-05-10T02:02:45;115.70;;;107.75;;
54641;SDS011;40536;53.194;5.728;2023-05-10T02:05:12;115.10;;;107.88;;
54641;SDS011;40536;53.194;5.728;2023-05-10T02:07:39;109.38;;;102.38;;
54641;SDS011;40536;53.194;5.728;2023-05-10T02:10:06;107.57;;;101.35;;
54641;SDS011;40536;53.194;5.728;2023-05-10T02:12:34;104.63;;;98.53;;
54641;SDS011;40536;53.194;5.728;2023-05-10T02:15:02;100.43;;;94.70;;
54641;SDS011;40536;53.194;5.728;2023-05-10T02:17:28;92.18;;;86.88;;
54641;SDS011;40536;53.194;5.728;2023-05-10T02:19:56;110.03;;;104.05;;
54641;SDS011;40536;53.194;5.728;2023-05-10T02:22:22;108.28;;;103.18;;
54641;SDS011;40536;53.194;5.728;2023-05-10T02:24:49;130.07;;;123.75;;
54641;SDS011;40536;53.194;5.728;2023-05-10T02:27:15;90.85;;;86.65;;
54641;SDS011;40536;53.194;5.728;2023-05-10T02:29:42;101.20;;;96.65;;
54641;SDS011;40536;53.194;5.728;2023-05-10T02:32:08;94.97;;;90.88;;
54641;SDS011;40536;53.194;5.728;2023-05-10T02:34:35;96.47;;;92.05;;
54641;SDS011;40536;53.194;5.728;2023-05-10T02:37:02;98.75;;;94.43;;
54641;SDS011;40536;53.194;5.728;2023-05-10T02:39:29;109.13;;;104.22;;
54641;SDS011;40536;53.194;5.728;2023-05-10T02:41:55;93.97;;;89.88;;
54641;SDS011;40536;53.194;5.728;2023-05-10T02:44:22;93.70;;;89.72;;
54641;SDS011;40536;53.194;5.728;2023-05-10T02:46:49;90.13;;;86.10;;
54641;SDS011;40536;53.194;5.728;2023-05-10T02:49:16;97.13;;;92.93;;
54641;SDS011;40536;53.194;5.728;2023-05-10T02:51:43;94.57;;;90.35;;
54641;SDS011;40536;53.194;5.728;2023-05-10T02:54:11;84.90;;;81.13;;
54641;SDS011;40536;53.194;5.728;2023-05-10T02:56:40;85.75;;;82.07;;
54641;SDS011;40536;53.194;5.728;2023-05-10T02:59:08;80.18;;;76.75;;
54641;SDS011;40536;53.194;5.728;2023-05-10T03:01:34;95.68;;;91.57;;
54641;SDS011;40536;53.194;5.728;2023-05-10T03:04:00;127.47;;;118.50;;
54641;SDS011;40536;53.194;5.728;2023-05-10T03:06:26;112.63;;;107.13;;
54641;SDS011;40536;53.194;5.728;2023-05-10T03:08:53;91.78;;;87.90;;
54641;SDS011;40536;53.194;5.728;2023-05-10T03:11:24;97.88;;;93.75;;
54641;SDS011;40536;53.194;5.728;2023-05-10T03:14:05;104.15;;;99.72;;
54641;SDS011;40536;53.194;5.728;2023-05-10T03:16:35;97.15;;;92.95;;
54641;SDS011;40536;53.194;5.728;2023-05-10T03:19:06;99.85;;;95.65;;
54641;SDS011;40536;53.194;5.728;2023-05-10T03:21:35;125.07;;;119.78;;
54641;SDS011;40536;53.194;5.728;2023-05-10T03:24:07;117.70;;;112.75;;
54641;SDS011;40536;53.194;5.728;2023-05-10T03:26:33;101.82;;;97.50;;
54641;SDS011;40536;53.194;5.728;2023-05-10T03:28:59;105.00;;;100.60;;
54641;SDS011;40536;53.194;5.728;2023-05-10T03:31:26;115.35;;;110.20;;
54641;SDS011;40536;53.194;5.728;2023-05-10T03:33:52;99.20;;;95.07;;
54641;SDS011;40536;53.194;5.728;2023-05-10T03:36:19;99.85;;;95.68;;
54641;SDS011;40536;53.194;5.728;2023-05-10T03:38:46;87.13;;;83.45;;
54641;SDS011;40536;53.194;5.728;2023-05-10T03:41:12;99.10;;;94.97;;
54641;SDS011;40536;53.194;5.728;2023-05-10T03:43:39;94.53;;;90.53;;
54641;SDS011;40536;53.194;5.728;2023-05-10T03:46:05;86.60;;;82.95;;
54641;SDS011;40536;53.194;5.728;2023-05-10T03:48:32;95.32;;;91.25;;
54641;SDS011;40536;53.194;5.728;2023-05-10T03:50:58;86.80;;;83.10;;
54641;SDS011;40536;53.194;5.728;2023-05-10T03:53:24;100.95;;;96.75;;
54641;SDS011;40536;53.194;5.728;2023-05-10T03:55:51;89.43;;;85.68;;
54641;SDS011;40536;53.194;5.728;2023-05-10T03:58:17;108.07;;;103.57;;
54641;SDS011;40536;53.194;5.728;2023-05-10T04:00:44;98.07;;;93.97;;
54641;SDS011;40536;53.194;5.728;2023-05-10T04:03:13;121.95;;;116.80;;
54641;SDS011;40536;53.194;5.728;2023-05-10T04:05:39;99.50;;;95.35;;
54641;SDS011;40536;53.194;5.728;2023-05-10T04:08:05;104.50;;;100.10;;
54641;SDS011;40536;53.194;5.728;2023-05-10T04:10:31;97.45;;;93.32;;
54641;SDS011;40536;53.194;5.728;2023-05-10T04:12:58;99.63;;;95.43;;
54641;SDS011;40536;53.194;5.728;2023-05-10T04:15:24;109.25;;;104.47;;
54641;SDS011;40536;53.194;5.728;2023-05-10T04:17:50;96.10;;;91.97;;
54641;SDS011;40536;53.194;5.728;2023-05-10T04:20:16;122.38;;;117.15;;
54641;SDS011;40536;53.194;5.728;2023-05-10T04:22:42;113.63;;;108.63;;
54641;SDS011;40536;53.194;5.728;2023-05-10T04:25:08;104.68;;;100.10;;
54641;SDS011;40536;53.194;5.728;2023-05-10T04:27:34;107.03;;;102.35;;
54641;SDS011;40536;53.194;5.728;2023-05-10T04:30:00;103.53;;;99.00;;
54641;SDS011;40536;53.194;5.728;2023-05-10T04:32:27;117.13;;;111.93;;
54641;SDS011;40536;53.194;5.728;2023-05-10T04:34:53;102.55;;;97.97;;
54641;SDS011;40536;53.194;5.728;2023-05-10T04:37:19;109.40;;;104.32;;
54641;SDS011;40536;53.194;5.728;2023-05-10T04:39:54;95.45;;;90.85;;
54641;SDS011;40536;53.194;5.728;2023-05-10T04:42:20;89.47;;;85.05;;
54641;SDS011;40536;53.194;5.728;2023-05-10T04:44:46;120.85;;;115.07;;
54641;SDS011;40536;53.194;5.728;2023-05-10T04:47:12;102.43;;;97.53;;
54641;SDS011;40536;53.194;5.728;2023-05-10T04:49:38;103.63;;;98.78;;
54641;SDS011;40536;53.194;5.728;2023-05-10T04:52:04;100.20;;;95.47;;
54641;SDS011;40536;53.194;5.728;2023-05-10T04:54:30;122.97;;;117.28;;
54641;SDS011;40536;53.194;5.728;2023-05-10T04:56:56;110.13;;;105.05;;
54641;SDS011;40536;53.194;5.728;2023-05-10T04:59:22;116.78;;;111.40;;
54641;SDS011;40536;53.194;5.728;2023-05-10T05:01:48;116.07;;;110.85;;
54641;SDS011;40536;53.194;5.728;2023-05-10T05:04:14;119.85;;;114.47;;
54641;SDS011;40536;53.194;5.728;2023-05-10T05:06:40;123.03;;;117.50;;
54641;SDS011;40536;53.194;5.728;2023-05-10T05:09:06;112.50;;;107.47;;
54641;SDS011;40536;53.194;5.728;2023-05-10T05:11:32;116.70;;;111.38;;
54641;SDS011;40536;53.194;5.728;2023-05-10T05:13:58;119.28;;;114.10;;
54641;SDS011;40536;53.194;5.728;2023-05-10T05:16:24;114.90;;;109.78;;
54641;SDS011;40536;53.194;5.728;2023-05-10T05:18:51;116.15;;;111.03;;
54641;SDS011;40536;53.194;5.728;2023-05-10T05:21:17;134.30;;;128.43;;
54641;SDS011;40536;53.194;5.728;2023-05-10T05:23:44;109.57;;;104.78;;
54641;SDS011;40536;53.194;5.728;2023-05-10T05:26:10;133.18;;;127.47;;
54641;SDS011;40536;53.194;5.728;2023-05-10T05:28:36;139.38;;;133.48;;
54641;SDS011;40536;53.194;5.728;2023-05-10T05:31:03;138.73;;;132.75;;
54641;SDS011;40536;53.194;5.728;2023-05-10T05:33:29;145.18;;;138.90;;
54641;SDS011;40536;53.194;5.728;2023-05-10T05:35:55;159.15;;;152.23;;
54641;SDS011;40536;53.194;5.728;2023-05-10T05:38:21;117.03;;;112.03;;
54641;SDS011;40536;53.194;5.728;2023-05-10T05:40:50;153.63;;;146.98;;
54641;SDS011;40536;53.194;5.728;2023-05-10T05:43:16;167.85;;;160.50;;
54641;SDS011;40536;53.194;5.728;2023-05-10T05:45:42;156.63;;;149.85;;
54641;SDS011;40536;53.194;5.728;2023-05-10T05:48:08;144.88;;;138.57;;
54641;SDS011;40536;53.194;5.728;2023-05-10T05:50:34;158.15;;;151.25;;
54641;SDS011;40536;53.194;5.728;2023-05-10T05:53:00;140.02;;;133.80;;
54641;SDS011;40536;53.194;5.728;2023-05-10T05:55:26;146.80;;;140.43;;
54641;SDS011;40536;53.194;5.728;2023-05-10T05:57:52;148.00;;;141.52;;
54641;SDS011;40536;53.194;5.728;2023-05-10T06:00:18;145.23;;;138.98;;
54641;SDS011;40536;53.194;5.728;2023-05-10T06:02:46;126.90;;;121.25;;
54641;SDS011;40536;53.194;5.728;2023-05-10T06:05:12;120.15;;;114.85;;
54641;SDS011;40536;53.194;5.728;2023-05-10T06:07:39;109.80;;;104.85;;
54641;SDS011;40536;53.194;5.728;2023-05-10T06:10:07;114.47;;;109.50;;
54641;SDS011;40536;53.194;5.728;2023-05-10T06:12:33;113.88;;;108.55;;
54641;SDS011;40536;53.194;5.728;2023-05-10T06:14:59;91.03;;;86.85;;
54641;SDS011;40536;53.194;5.728;2023-05-10T06:17:25;122.00;;;116.53;;
54641;SDS011;40536;53.194;5.728;2023-05-10T06:19:52;104.97;;;100.10;;
54641;SDS011;40536;53.194;5.728;2023-05-10T06:22:18;99.57;;;95.03;;
54641;SDS011;40536;53.194;5.728;2023-05-10T06:24:44;99.63;;;94.95;;
54641;SDS011;40536;53.194;5.728;2023-05-10T06:27:10;103.47;;;98.72;;
54641;SDS011;40536;53.194;5.728;2023-05-10T06:29:36;111.90;;;106.88;;
54641;SDS011;40536;53.194;5.728;2023-05-10T06:32:02;127.75;;;121.95;;
54641;SDS011;40536;53.194;5.728;2023-05-10T06:34:29;104.82;;;99.93;;
54641;SDS011;40536;53.194;5.728;2023-05-10T06:36:55;101.90;;;97.18;;
54641;SDS011;40536;53.194;5.728;2023-05-10T06:39:22;90.05;;;85.85;;
54641;SDS011;40536;53.194;5.728;2023-05-10T06:41:48;83.22;;;78.93;;
54641;SDS011;40536;53.194;5.728;2023-05-10T06:44:14;102.22;;;97.30;;
54641;SDS011;40536;53.194;5.728;2023-05-10T06:46:40;97.55;;;92.75;;
54641;SDS011;40536;53.194;5.728;2023-05-10T06:49:06;99.53;;;94.80;;
54641;SDS011;40536;53.194;5.728;2023-05-10T06:51:32;118.88;;;113.38;;
54641;SDS011;40536;53.194;5.728;2023-05-10T06:53:58;89.55;;;85.35;;
54641;SDS011;40536;53.194;5.728;2023-05-10T06:56:25;95.90;;;91.30;;
54641;SDS011;40536;53.194;5.728;2023-05-10T06:58:51;81.30;;;77.43;;
54641;SDS011;40536;53.194;5.728;2023-05-10T07:01:17;81.55;;;77.13;;
54641;SDS011;40536;53.194;5.728;2023-05-10T07:03:43;57.78;;;54.88;;
54641;SDS011;40536;53.194;5.728;2023-05-10T07:06:09;56.80;;;53.83;;
54641;SDS011;40536;53.194;5.728;2023-05-10T07:08:35;57.13;;;54.20;;
54641;SDS011;40536;53.194;5.728;2023-05-10T07:13:28;69.00;;;65.68;;
54641;SDS011;40536;53.194;5.728;2023-05-10T07:15:55;74.32;;;70.82;;
54641;SDS011;40536;53.194;5.728;2023-05-10T07:18:21;81.05;;;77.32;;
54641;SDS011;40536;53.194;5.728;2023-05-10T07:20:47;81.32;;;77.47;;
54641;SDS011;40536;53.194;5.728;2023-05-10T07:23:13;91.93;;;87.68;;
54641;SDS011;40536;53.194;5.728;2023-05-10T07:25:39;88.85;;;84.68;;
54641;SDS011;40536;53.194;5.728;2023-05-10T07:28:05;84.80;;;80.80;;
54641;SDS011;40536;53.194;5.728;2023-05-10T07:30:31;85.30;;;81.10;;
54641;SDS011;40536;53.194;5.728;2023-05-10T07:32:57;97.75;;;93.25;;
54641;SDS011;40536;53.194;5.728;2023-05-10T07:35:24;57.03;;;53.75;;
54641;SDS011;40536;53.194;5.728;2023-05-10T07:37:53;56.70;;;53.53;;
54641;SDS011;40536;53.194;5.728;2023-05-10T07:40:19;53.70;;;50.78;;
54641;SDS011;40536;53.194;5.728;2023-05-10T07:42:45;54.40;;;51.50;;
54641;SDS011;40536;53.194;5.728;2023-05-10T07:45:11;36.28;;;34.08;;
54641;SDS011;40536;53.194;5.728;2023-05-10T07:47:37;37.03;;;34.60;;
54641;SDS011;40536;53.194;5.728;2023-05-10T07:50:03;45.60;;;42.65;;
54641;SDS011;40536;53.194;5.728;2023-05-10T07:52:29;39.90;;;37.65;;
54641;SDS011;40536;53.194;5.728;2023-05-10T07:54:55;36.88;;;34.65;;
54641;SDS011;40536;53.194;5.728;2023-05-10T07:57:22;34.08;;;32.08;;
54641;SDS011;40536;53.194;5.728;2023-05-10T07:59:48;42.15;;;39.75;;
54641;SDS011;40536;53.194;5.728;2023-05-10T08:02:14;67.43;;;64.10;;
54641;SDS011;40536;53.194;5.728;2023-05-10T08:04:40;53.15;;;50.40;;
54641;SDS011;40536;53.194;5.728;2023-05-10T08:07:06;46.65;;;44.03;;
54641;SDS011;40536;53.194;5.728;2023-05-10T08:09:32;33.55;;;31.55;;
54641;SDS011;40536;53.194;5.728;2023-05-10T08:11:59;35.85;;;33.85;;
54641;SDS011;40536;53.194;5.728;2023-05-10T08:14:25;37.72;;;35.60;;
54641;SDS011;40536;53.194;5.728;2023-05-10T08:16:51;29.98;;;28.08;;
54641;SDS011;40536;53.194;5.728;2023-05-10T08:19:17;25.13;;;23.52;;
54641;SDS011;40536;53.194;5.728;2023-05-10T08:21:46;26.88;;;25.17;;
54641;SDS011;40536;53.194;5.728;2023-05-10T08:24:12;23.42;;;21.83;;
54641;SDS011;40536;53.194;5.728;2023-05-10T08:26:39;24.30;;;22.65;;
54641;SDS011;40536;53.194;5.728;2023-05-10T08:29:05;24.85;;;23.25;;
54641;SDS011;40536;53.194;5.728;2023-05-10T08:31:31;28.90;;;27.00;;
54641;SDS011;40536;53.194;5.728;2023-05-10T08:33:58;25.60;;;23.83;;
54641;SDS011;40536;53.194;5.728;2023-05-10T08:36:24;24.38;;;22.50;;
54641;SDS011;40536;53.194;5.728;2023-05-10T08:38:51;29.27;;;26.58;;
54641;SDS011;40536;53.194;5.728;2023-05-10T08:41:19;30.73;;;28.63;;
54641;SDS011;40536;53.194;5.728;2023-05-10T08:43:46;24.30;;;22.30;;
54641;SDS011;40536;53.194;5.728;2023-05-10T08:46:20;28.13;;;26.13;;
54641;SDS011;40536;53.194;5.728;2023-05-10T08:48:47;27.40;;;25.48;;
54641;SDS011;40536;53.194;5.728;2023-05-10T08:51:14;32.42;;;30.13;;
54641;SDS011;40536;53.194;5.728;2023-05-10T08:53:41;30.02;;;27.92;;
54641;SDS011;40536;53.194;5.728;2023-05-10T08:56:07;26.10;;;24.15;;
54641;SDS011;40536;53.194;5.728;2023-05-10T08:58:34;28.88;;;26.88;;
54641;SDS011;40536;53.194;5.728;2023-05-10T09:01:00;31.33;;;29.08;;
54641;SDS011;40536;53.194;5.728;2023-05-10T09:03:26;25.27;;;23.48;;
54641;SDS011;40536;53.194;5.728;2023-05-10T09:05:52;25.48;;;23.02;;
54641;SDS011;40536;53.194;5.728;2023-05-10T09:08:21;24.35;;;22.55;;
54641;SDS011;40536;53.194;5.728;2023-05-10T09:10:51;25.42;;;23.38;;
54641;SDS011;40536;53.194;5.728;2023-05-10T09:13:17;24.95;;;23.25;;
54641;SDS011;40536;53.194;5.728;2023-05-10T09:15:44;26.85;;;25.00;;
54641;SDS011;40536;53.194;5.728;2023-05-10T09:18:11;24.20;;;22.45;;
54641;SDS011;40536;53.194;5.728;2023-05-10T09:20:37;28.02;;;26.08;;
54641;SDS011;40536;53.194;5.728;2023-05-10T09:23:03;28.92;;;27.08;;
54641;SDS011;40536;53.194;5.728;2023-05-10T09:25:30;31.20;;;29.10;;
54641;SDS011;40536;53.194;5.728;2023-05-10T09:27:58;31.70;;;29.60;;
54641;SDS011;40536;53.194;5.728;2023-05-10T09:30:28;37.10;;;34.80;;
54641;SDS011;40536;53.194;5.728;2023-05-10T09:32:54;36.08;;;33.63;;
54641;SDS011;40536;53.194;5.728;2023-05-10T09:35:21;32.63;;;30.23;;
54641;SDS011;40536;53.194;5.728;2023-05-10T09:37:51;33.00;;;30.90;;
54641;SDS011;40536;53.194;5.728;2023-05-10T09:40:22;28.35;;;26.45;;
54641;SDS011;40536;53.194;5.728;2023-05-10T09:45:26;36.28;;;33.88;;
54641;SDS011;40536;53.194;5.728;2023-05-10T09:47:52;34.85;;;32.67;;
54641;SDS011;40536;53.194;5.728;2023-05-10T09:50:19;36.08;;;33.95;;
54641;SDS011;40536;53.194;5.728;2023-05-10T09:55:15;33.63;;;31.52;;
54641;SDS011;40536;53.194;5.728;2023-05-10T09:57:41;32.15;;;30.13;;
54641;SDS011;40536;53.194;5.728;2023-05-10T10:00:07;29.98;;;27.95;;
54641;SDS011;40536;53.194;5.728;2023-05-10T10:02:35;33.78;;;31.55;;
54641;SDS011;40536;53.194;5.728;2023-05-10T10:05:01;34.25;;;32.05;;
54641;SDS011;40536;53.194;5.728;2023-05-10T10:07:28;39.03;;;36.33;;
54641;SDS011;40536;53.194;5.728;2023-05-10T10:09:54;33.97;;;31.35;;
54641;SDS011;40536;53.194;5.728;2023-05-10T10:12:20;49.65;;;46.45;;
54641;SDS011;40536;53.194;5.728;2023-05-10T10:14:47;36.75;;;34.40;;
54641;SDS011;40536;53.194;5.728;2023-05-10T10:17:15;31.13;;;28.92;;
54641;SDS011;40536;53.194;5.728;2023-05-10T10:19:41;34.08;;;31.67;;
54641;SDS011;40536;53.194;5.728;2023-05-10T10:22:07;27.52;;;25.52;;
54641;SDS011;40536;53.194;5.728;2023-05-10T10:24:35;32.45;;;30.00;;
54641;SDS011;40536;53.194;5.728;2023-05-10T10:27:04;29.15;;;27.15;;
54641;SDS011;40536;53.194;5.728;2023-05-10T10:32:05;40.45;;;37.88;;
54641;SDS011;40536;53.194;5.728;2023-05-10T10:34:33;37.13;;;34.75;;
54641;SDS011;40536;53.194;5.728;2023-05-10T10:37:04;40.03;;;37.45;;
54641;SDS011;40536;53.194;5.728;2023-05-10T10:39:30;34.70;;;32.30;;
54641;SDS011;40536;53.194;5.728;2023-05-10T10:41:57;37.70;;;35.55;;
54641;SDS011;40536;53.194;5.728;2023-05-10T10:44:24;36.28;;;34.22;;
54641;SDS011;40536;53.194;5.728;2023-05-10T10:47:07;57.47;;;54.47;;
54641;SDS011;40536;53.194;5.728;2023-05-10T10:52:13;100.10;;;95.43;;
54641;SDS011;40536;53.194;5.728;2023-05-10T10:54:40;91.78;;;87.38;;
54641;SDS011;40536;53.194;5.728;2023-05-10T10:57:13;100.65;;;95.85;;
54641;SDS011;40536;53.194;5.728;2023-05-10T11:02:06;89.63;;;85.38;;
54641;SDS011;40536;53.194;5.728;2023-05-10T11:04:41;100.13;;;95.22;;
54641;SDS011;40536;53.194;5.728;2023-05-10T11:07:17;85.88;;;81.68;;
54641;SDS011;40536;53.194;5.728;2023-05-10T11:09:43;69.75;;;66.28;;
54641;SDS011;40536;53.194;5.728;2023-05-10T11:12:10;77.00;;;73.03;;
54641;SDS011;40536;53.194;5.728;2023-05-10T11:14:36;58.95;;;55.90;;
54641;SDS011;40536;53.194;5.728;2023-05-10T11:17:02;34.60;;;32.45;;
54641;SDS011;40536;53.194;5.728;2023-05-10T11:20:06;44.50;;;41.88;;
54641;SDS011;40536;53.194;5.728;2023-05-10T11:22:48;34.08;;;31.98;;
54641;SDS011;40536;53.194;5.728;2023-05-10T11:25:15;40.97;;;38.33;;
54641;SDS011;40536;53.194;5.728;2023-05-10T11:27:41;44.10;;;41.65;;
54641;SDS011;40536;53.194;5.728;2023-05-10T11:30:09;46.70;;;43.95;;
54641;SDS011;40536;53.194;5.728;2023-05-10T11:32:38;34.42;;;32.22;;
54641;SDS011;40536;53.194;5.728;2023-05-10T11:35:10;38.50;;;36.13;;
54641;SDS011;40536;53.194;5.728;2023-05-10T11:37:36;33.50;;;31.35;;
54641;SDS011;40536;53.194;5.728;2023-05-10T11:40:08;35.25;;;32.97;;
54641;SDS011;40536;53.194;5.728;2023-05-10T11:42:38;43.00;;;40.03;;
54641;SDS011;40536;53.194;5.728;2023-05-10T11:45:04;32.05;;;29.92;;
54641;SDS011;40536;53.194;5.728;2023-05-10T11:47:31;28.15;;;26.17;;
54641;SDS011;40536;53.194;5.728;2023-05-10T11:49:57;40.55;;;37.97;;
54641;SDS011;40536;53.194;5.728;2023-05-10T11:52:23;31.83;;;29.55;;
54641;SDS011;40536;53.194;5.728;2023-05-10T11:54:55;33.15;;;30.80;;
54641;SDS011;40536;53.194;5.728;2023-05-10T11:57:26;33.72;;;31.33;;
54641;SDS011;40536;53.194;5.728;2023-05-10T11:59:53;30.13;;;27.88;;
54641;SDS011;40536;53.194;5.728;2023-05-10T12:02:20;38.20;;;35.40;;
54641;SDS011;40536;53.194;5.728;2023-05-10T12:04:46;59.58;;;55.78;;
54641;SDS011;40536;53.194;5.728;2023-05-10T12:07:12;42.10;;;39.15;;
54641;SDS011;40536;53.194;5.728;2023-05-10T12:09:44;53.83;;;50.58;;
54641;SDS011;40536;53.194;5.728;2023-05-10T12:12:21;35.80;;;33.15;;
54641;SDS011;40536;53.194;5.728;2023-05-10T12:14:50;33.42;;;30.88;;
54641;SDS011;40536;53.194;5.728;2023-05-10T12:17:16;26.92;;;24.85;;
54641;SDS011;40536;53.194;5.728;2023-05-10T12:19:42;21.17;;;19.40;;
54641;SDS011;40536;53.194;5.728;2023-05-10T12:22:08;29.10;;;26.95;;
54641;SDS011;40536;53.194;5.728;2023-05-10T12:24:35;31.92;;;29.75;;
54641;SDS011;40536;53.194;5.728;2023-05-10T12:27:04;28.05;;;26.02;;
54641;SDS011;40536;53.194;5.728;2023-05-10T12:29:33;30.77;;;28.60;;
54641;SDS011;40536;53.194;5.728;2023-05-10T12:31:59;38.92;;;36.50;;
54641;SDS011;40536;53.194;5.728;2023-05-10T12:34:34;32.72;;;30.52;;
54641;SDS011;40536;53.194;5.728;2023-05-10T12:37:01;28.77;;;26.40;;
54641;SDS011;40536;53.194;5.728;2023-05-10T12:39:48;45.17;;;42.03;;
54641;SDS011;40536;53.194;5.728;2023-05-10T12:42:14;37.90;;;35.08;;
54641;SDS011;40536;53.194;5.728;2023-05-10T12:44:40;32.35;;;29.58;;
54641;SDS011;40536;53.194;5.728;2023-05-10T12:47:06;28.35;;;26.00;;
54641;SDS011;40536;53.194;5.728;2023-05-10T12:49:32;24.42;;;22.30;;
54641;SDS011;40536;53.194;5.728;2023-05-10T12:51:58;30.00;;;27.67;;
54641;SDS011;40536;53.194;5.728;2023-05-10T12:54:25;26.27;;;24.15;;
54641;SDS011;40536;53.194;5.728;2023-05-10T12:56:51;36.35;;;33.83;;
54641;SDS011;40536;53.194;5.728;2023-05-10T12:59:17;35.35;;;32.90;;
54641;SDS011;40536;53.194;5.728;2023-05-10T13:01:43;22.85;;;20.98;;
54641;SDS011;40536;53.194;5.728;2023-05-10T13:04:09;22.90;;;20.88;;
54641;SDS011;40536;53.194;5.728;2023-05-10T13:06:35;25.23;;;23.15;;
54641;SDS011;40536;53.194;5.728;2023-05-10T13:09:01;30.05;;;27.73;;
54641;SDS011;40536;53.194;5.728;2023-05-10T13:11:27;22.65;;;20.10;;
54641;SDS011;40536;53.194;5.728;2023-05-10T13:13:53;36.85;;;34.08;;
54641;SDS011;40536;53.194;5.728;2023-05-10T13:16:19;37.67;;;34.88;;
54641;SDS011;40536;53.194;5.728;2023-05-10T13:18:45;19.42;;;17.73;;
54641;SDS011;40536;53.194;5.728;2023-05-10T13:21:11;19.02;;;17.27;;
54641;SDS011;40536;53.194;5.728;2023-05-10T13:23:37;24.58;;;22.52;;
54641;SDS011;40536;53.194;5.728;2023-05-10T13:26:03;18.85;;;17.35;;
54641;SDS011;40536;53.194;5.728;2023-05-10T13:28:29;37.70;;;35.33;;
54641;SDS011;40536;53.194;5.728;2023-05-10T13:30:55;28.15;;;25.88;;
54641;SDS011;40536;53.194;5.728;2023-05-10T13:33:21;48.58;;;45.90;;
54641;SDS011;40536;53.194;5.728;2023-05-10T13:35:47;34.13;;;31.88;;
54641;SDS011;40536;53.194;5.728;2023-05-10T13:38:14;30.50;;;28.48;;
54641;SDS011;40536;53.194;5.728;2023-05-10T13:40:40;32.55;;;30.63;;
54641;SDS011;40536;53.194;5.728;2023-05-10T13:43:06;44.67;;;42.05;;
54641;SDS011;40536;53.194;5.728;2023-05-10T13:45:37;26.35;;;24.58;;
54641;SDS011;40536;53.194;5.728;2023-05-10T13:48:04;56.97;;;53.80;;
54641;SDS011;40536;53.194;5.728;2023-05-10T13:50:30;37.60;;;35.35;;
54641;SDS011;40536;53.194;5.728;2023-05-10T13:52:56;25.45;;;23.77;;
54641;SDS011;40536;53.194;5.728;2023-05-10T13:55:22;37.50;;;35.40;;
54641;SDS011;40536;53.194;5.728;2023-05-10T13:57:48;58.00;;;55.10;;
54641;SDS011;40536;53.194;5.728;2023-05-10T14:00:14;45.20;;;42.72;;
54641;SDS011;40536;53.194;5.728;2023-05-10T14:02:41;38.78;;;36.63;;
54641;SDS011;40536;53.194;5.728;2023-05-10T14:05:07;42.70;;;40.45;;
54641;SDS011;40536;53.194;5.728;2023-05-10T14:07:33;26.60;;;25.00;;
54641;SDS011;40536;53.194;5.728;2023-05-10T14:09:59;40.00;;;37.78;;
54641;SDS011;40536;53.194;5.728;2023-05-10T14:12:25;30.60;;;28.67;;
54641;SDS011;40536;53.194;5.728;2023-05-10T14:14:52;32.50;;;30.70;;
54641;SDS011;40536;53.194;5.728;2023-05-10T14:17:18;43.75;;;41.33;;
54641;SDS011;40536;53.194;5.728;2023-05-10T14:19:44;38.78;;;36.67;;
54641;SDS011;40536;53.194;5.728;2023-05-10T14:22:10;26.98;;;25.38;;
54641;SDS011;40536;53.194;5.728;2023-05-10T14:24:37;35.58;;;33.60;;
54641;SDS011;40536;53.194;5.728;2023-05-10T14:27:03;38.13;;;36.05;;
54641;SDS011;40536;53.194;5.728;2023-05-10T14:29:29;41.55;;;39.28;;
54641;SDS011;40536;53.194;5.728;2023-05-10T14:31:55;36.95;;;34.83;;
54641;SDS011;40536;53.194;5.728;2023-05-10T14:34:21;42.13;;;39.78;;
54641;SDS011;40536;53.194;5.728;2023-05-10T14:36:50;26.27;;;24.65;;
54641;SDS011;40536;53.194;5.728;2023-05-10T14:39:16;29.10;;;27.30;;
54641;SDS011;40536;53.194;5.728;2023-05-10T14:41:43;27.10;;;25.35;;